createdAt,value
2022-11-03T00:01:20.377Z,22.47
2022-11-03T00:04:26.135Z,7.70
2022-11-03T00:07:32.013Z,12.27
2022-11-03T00:10:37.840Z,10.67
2022-11-03T00:13:44.881Z,14.07
2022-11-03T00:16:52.367Z,8.47
2022-11-03T00:19:58.544Z,6.33
2022-11-03T00:23:05.093Z,8.23
2022-11-03T00:26:14.537Z,6.47
2022-11-03T00:29:21.717Z,7.87
2022-11-03T00:32:29.122Z,6.20
2022-11-03T00:35:35.585Z,11.27
2022-11-03T00:38:42.142Z,9.60
2022-11-03T00:41:48.761Z,9.10
2022-11-03T00:44:54.701Z,12.87
2022-11-03T00:48:20.205Z,11.63
2022-11-03T00:51:30.091Z,30.67
2022-11-03T00:54:36.298Z,13.27
2022-11-03T00:57:42.496Z,9.73
2022-11-03T01:00:49.009Z,6.63
2022-11-03T01:04:16.102Z,13.37
2022-11-03T01:07:22.651Z,13.47
2022-11-03T01:10:28.781Z,7.73
2022-11-03T01:13:34.868Z,16.87
2022-11-03T01:16:41.901Z,9.90
2022-11-03T01:19:49.666Z,7.13
2022-11-03T01:22:55.601Z,13.17
2022-11-03T01:26:06.044Z,10.77
2022-11-03T01:29:12.368Z,11.03
2022-11-03T01:32:18.964Z,8.47
2022-11-03T01:35:26.859Z,8.50
2022-11-03T01:38:34.005Z,6.47
2022-11-03T01:41:41.255Z,5.33
2022-11-03T01:44:50.060Z,9.10
2022-11-03T01:47:56.504Z,12.00
2022-11-03T01:51:06.773Z,9.87
2022-11-03T01:54:16.621Z,10.80
2022-11-03T01:57:28.521Z,23.47
2022-11-03T02:00:34.887Z,11.03
2022-11-03T02:03:44.408Z,9.50
2022-11-03T02:06:59.104Z,13.70
2022-11-03T02:10:06.872Z,9.03
2022-11-03T02:13:19.805Z,7.97
2022-11-03T02:16:30.506Z,8.17
2022-11-03T02:19:42.187Z,9.23
2022-11-03T02:23:19.381Z,9.57
2022-11-03T02:26:27.008Z,12.33
2022-11-03T02:29:33.396Z,11.27
2022-11-03T02:32:51.061Z,10.67
2022-11-03T02:36:02.862Z,13.47
2022-11-03T02:39:16.227Z,26.03
2022-11-03T02:42:25.829Z,14.83
2022-11-03T02:45:32.544Z,11.97
2022-11-03T02:48:38.991Z,13.50
2022-11-03T02:51:45.409Z,11.93
2022-11-03T02:54:53.396Z,11.67
2022-11-03T02:58:07.521Z,15.03
2022-11-03T03:01:19.013Z,11.97
2022-11-03T03:04:30.529Z,11.93
2022-11-03T03:07:42.758Z,17.10
2022-11-03T03:10:50.135Z,10.67
2022-11-03T03:13:57.718Z,13.43
2022-11-03T03:17:10.282Z,10.20
2022-11-03T03:20:24.464Z,13.03
2022-11-03T03:23:36.900Z,22.33
2022-11-03T03:26:46.191Z,13.73
2022-11-03T03:29:57.112Z,15.13
2022-11-03T03:33:06.141Z,14.43
2022-11-03T03:36:17.660Z,9.27
2022-11-03T03:39:27.060Z,9.70
2022-11-03T03:42:35.907Z,13.93
2022-11-03T03:45:45.582Z,14.27
2022-11-03T03:48:51.612Z,9.63
2022-11-03T03:51:57.866Z,12.87
2022-11-03T03:55:04.135Z,8.00
2022-11-03T03:58:13.423Z,11.90
2022-11-03T04:01:21.185Z,14.10
2022-11-03T04:04:27.347Z,9.63
2022-11-03T04:07:48.529Z,11.93
2022-11-03T04:11:12.245Z,12.10
2022-11-03T04:14:35.730Z,9.53
2022-11-03T04:18:03.461Z,9.87
2022-11-03T04:21:30.663Z,28.60
2022-11-03T04:24:36.577Z,28.13
2022-11-03T04:27:42.620Z,12.80
2022-11-03T04:30:48.854Z,11.77
2022-11-03T04:33:56.462Z,14.60
2022-11-03T04:37:03.073Z,18.20
2022-11-03T04:40:16.171Z,22.47
2022-11-03T04:43:25.955Z,33.83
2022-11-03T04:46:33.175Z,27.93
2022-11-03T04:49:40.904Z,35.63
2022-11-03T04:52:48.219Z,24.50
2022-11-03T04:55:56.167Z,26.63
2022-11-03T04:59:02.482Z,34.17
2022-11-03T05:02:14.504Z,29.87
2022-11-03T05:05:24.469Z,32.63
2022-11-03T05:08:30.561Z,49.17
2022-11-03T05:11:39.996Z,41.27
2022-11-03T05:14:46.257Z,13.80
2022-11-03T05:17:52.399Z,20.33
2022-11-03T05:21:02.511Z,25.17
2022-11-03T05:27:23.442Z,64.77
2022-11-03T05:30:29.665Z,74.07
2022-11-03T05:33:37.112Z,65.73
2022-11-03T05:36:44.955Z,42.63
2022-11-03T05:39:52.365Z,33.77
2022-11-03T05:43:02.325Z,23.93
2022-11-03T05:46:12.982Z,25.07
2022-11-03T05:49:20.371Z,22.87
2022-11-03T05:52:29.465Z,18.60
2022-11-03T05:55:37.070Z,25.63
2022-11-03T05:58:45.564Z,35.33
2022-11-03T06:01:53.217Z,31.90
2022-11-03T06:04:59.513Z,34.63
2022-11-03T06:08:20.446Z,31.43
2022-11-03T06:11:32.668Z,21.57
2022-11-03T06:14:38.929Z,21.67
2022-11-03T06:17:45.293Z,23.87
2022-11-03T06:20:53.986Z,48.53
2022-11-03T06:24:01.737Z,54.70
2022-11-03T06:27:11.921Z,35.30
2022-11-03T06:30:25.243Z,37.93
2022-11-03T06:33:35.159Z,30.27
2022-11-03T06:36:41.524Z,23.70
2022-11-03T06:39:49.853Z,28.97
2022-11-03T06:42:58.612Z,17.57
2022-11-03T06:46:14.303Z,21.80
2022-11-03T06:49:29.886Z,17.43
2022-11-03T06:52:42.933Z,17.47
2022-11-03T06:55:50.961Z,16.37
2022-11-03T06:58:58.689Z,26.47
2022-11-03T07:02:04.924Z,19.03
2022-11-03T07:05:23.041Z,20.67
2022-11-03T07:08:33.350Z,15.90
2022-11-03T07:11:45.117Z,14.63
2022-11-03T07:14:50.990Z,26.57
2022-11-03T07:17:57.012Z,41.13
2022-11-03T07:21:08.415Z,35.03
2022-11-03T07:24:20.145Z,50.27
2022-11-03T07:27:30.193Z,23.37
2022-11-03T07:30:37.757Z,28.97
2022-11-03T07:33:44.103Z,24.33
2022-11-03T07:36:55.663Z,19.07
2022-11-03T07:40:02.130Z,16.10
2022-11-03T07:43:17.490Z,26.13
2022-11-03T07:46:25.030Z,12.67
2022-11-03T07:49:32.008Z,22.00
2022-11-03T07:52:37.953Z,14.67
2022-11-03T07:55:45.896Z,12.13
2022-11-03T07:58:56.929Z,15.20
2022-11-03T08:02:04.247Z,12.10
2022-11-03T08:05:10.660Z,16.47
2022-11-03T08:08:16.890Z,10.60
2022-11-03T08:11:27.891Z,14.50
2022-11-03T08:14:38.046Z,13.07
2022-11-03T08:17:44.586Z,16.90
2022-11-03T08:20:50.686Z,10.60
2022-11-03T08:23:57.011Z,11.37
2022-11-03T08:27:03.610Z,7.67
2022-11-03T08:30:11.601Z,7.40
2022-11-03T08:33:18.105Z,7.10
2022-11-03T08:36:24.242Z,12.73
2022-11-03T08:39:31.445Z,17.33
2022-11-03T08:42:37.540Z,8.00
2022-11-03T08:45:44.675Z,9.47
2022-11-03T08:48:52.035Z,13.17
2022-11-03T08:51:58.227Z,12.63
2022-11-03T08:55:04.374Z,8.70
2022-11-03T08:58:10.675Z,6.80
2022-11-03T09:01:18.872Z,8.93
2022-11-03T09:04:24.948Z,9.20
2022-11-03T09:10:57.718Z,8.33
2022-11-03T09:14:04.543Z,8.17
2022-11-03T09:17:12.293Z,10.13
2022-11-03T09:20:18.670Z,11.23
2022-11-03T09:23:25.097Z,11.03
2022-11-03T09:26:31.251Z,8.20
2022-11-03T09:30:06.380Z,6.07
2022-11-03T09:33:05.146Z,15.80
2022-11-03T09:36:11.768Z,10.13
2022-11-03T09:39:18.257Z,5.30
2022-11-03T09:42:24.937Z,8.07
2022-11-03T09:45:31.044Z,8.50
2022-11-03T09:48:38.974Z,7.43
2022-11-03T09:51:46.008Z,11.80
2022-11-03T09:54:55.501Z,8.37
2022-11-03T09:58:07.650Z,9.07
2022-11-03T10:01:14.273Z,8.10
2022-11-03T10:04:27.119Z,6.93
2022-11-03T10:07:33.365Z,14.57
2022-11-03T10:10:41.498Z,15.60
2022-11-03T10:13:53.000Z,8.37
2022-11-03T10:17:01.086Z,12.03
2022-11-03T10:20:12.672Z,10.23
2022-11-03T10:23:19.214Z,10.60
2022-11-03T10:26:25.459Z,10.13
2022-11-03T10:29:37.244Z,16.40
2022-11-03T10:32:45.801Z,14.23
2022-11-03T10:35:53.403Z,16.83
2022-11-03T10:39:01.810Z,15.70
2022-11-03T10:42:17.661Z,15.33
2022-11-03T10:45:24.698Z,14.33
2022-11-03T10:48:33.094Z,26.67
2022-11-03T10:51:41.334Z,21.13
2022-11-03T10:54:47.911Z,14.03
2022-11-03T10:57:56.734Z,11.00
2022-11-03T11:01:03.215Z,18.17
2022-11-03T11:04:09.935Z,12.83
2022-11-03T11:07:28.209Z,10.27
2022-11-03T11:10:35.126Z,13.23
2022-11-03T11:13:41.925Z,10.87
2022-11-03T11:16:53.150Z,12.67
2022-11-03T11:20:43.973Z,11.33
2022-11-03T11:23:53.094Z,10.57
2022-11-03T11:26:59.123Z,14.67
2022-11-03T11:30:07.522Z,8.33
2022-11-03T11:33:15.793Z,9.73
2022-11-03T11:36:25.075Z,17.37
2022-11-03T11:39:47.909Z,8.10
2022-11-03T11:43:28.027Z,13.60
2022-11-03T11:46:42.398Z,8.47
2022-11-03T11:49:48.553Z,7.80
2022-11-03T11:52:59.196Z,11.87
2022-11-03T11:56:10.173Z,12.17
2022-11-03T11:59:24.623Z,12.90
2022-11-03T12:02:32.357Z,21.90
2022-11-03T12:05:38.770Z,15.77
2022-11-03T12:08:45.304Z,9.13
2022-11-03T12:11:56.448Z,11.03
2022-11-03T12:15:03.088Z,12.50
2022-11-03T12:18:31.965Z,11.90
2022-11-03T12:21:48.756Z,9.50
2022-11-03T12:24:56.185Z,13.53
2022-11-03T12:28:04.224Z,11.80
2022-11-03T12:31:10.595Z,19.70
2022-11-03T12:34:17.156Z,11.90
2022-11-03T12:37:23.937Z,14.40
2022-11-03T12:40:30.535Z,27.37
2022-11-03T12:43:38.620Z,21.63
2022-11-03T12:46:45.212Z,22.77
2022-11-03T12:49:51.542Z,18.60
2022-11-03T12:52:58.006Z,12.10
2022-11-03T12:56:04.359Z,15.10
2022-11-03T12:59:12.311Z,16.00
2022-11-03T13:02:18.922Z,20.93
2022-11-03T13:05:25.948Z,21.43
2022-11-03T13:08:32.314Z,17.47
2022-11-03T13:11:55.968Z,16.23
2022-11-03T13:15:05.138Z,31.43
2022-11-03T13:18:14.130Z,18.03
2022-11-03T13:21:20.633Z,18.93
2022-11-03T13:24:26.544Z,14.87
2022-11-03T13:27:32.451Z,18.13
2022-11-03T13:30:40.514Z,25.40
2022-11-03T13:33:46.926Z,24.23
2022-11-03T13:36:52.866Z,23.50
2022-11-03T13:39:59.069Z,17.63
2022-11-03T13:43:05.392Z,30.00
2022-11-03T13:46:13.516Z,35.23
2022-11-03T13:50:07.772Z,23.37
2022-11-03T13:52:47.772Z,25.30
2022-11-03T13:55:56.241Z,12.87
2022-11-03T14:05:58.923Z,36.13
2022-11-03T14:09:05.201Z,19.63
2022-11-03T14:12:29.128Z,24.73
2022-11-03T14:15:35.336Z,25.07
2022-11-03T14:18:43.053Z,18.90
2022-11-03T14:21:49.465Z,21.23
2022-11-03T14:24:55.633Z,20.57
2022-11-03T14:28:02.058Z,12.67
2022-11-03T14:31:08.692Z,16.77
2022-11-03T14:34:16.868Z,47.20
2022-11-03T14:37:25.532Z,26.50
2022-11-03T14:40:49.465Z,24.37
2022-11-03T14:43:55.581Z,36.23
2022-11-03T14:47:02.852Z,35.67
2022-11-03T14:50:11.171Z,33.90
2022-11-03T14:53:17.818Z,30.43
2022-11-03T14:56:23.981Z,30.13
2022-11-03T14:59:30.419Z,25.20
2022-11-03T15:02:37.197Z,43.53
2022-11-03T15:05:47.724Z,41.87
2022-11-03T15:08:56.613Z,39.90
2022-11-03T15:12:03.509Z,22.67
2022-11-03T15:15:11.426Z,29.47
2022-11-03T15:18:18.291Z,31.90
2022-11-03T15:21:26.146Z,36.43
2022-11-03T15:27:59.284Z,29.00
2022-11-03T15:31:05.710Z,40.87
2022-11-03T15:34:12.652Z,70.80
2022-11-03T15:37:20.717Z,94.50
2022-11-03T15:40:27.800Z,88.03
2022-11-03T15:43:33.870Z,124.10
2022-11-03T15:46:40.162Z,121.17
2022-11-03T15:49:46.521Z,125.73
2022-11-03T15:52:54.034Z,82.67
2022-11-03T15:56:00.454Z,90.30
2022-11-03T15:59:07.400Z,116.60
2022-11-03T16:02:35.721Z,79.97
2022-11-03T16:05:39.609Z,172.70
2022-11-03T16:08:47.549Z,169.07
2022-11-03T16:11:53.985Z,172.13
2022-11-03T16:15:00.093Z,188.87
2022-11-03T16:18:06.278Z,77.77
2022-11-03T16:21:12.823Z,103.33
2022-11-03T16:24:20.254Z,118.10
2022-11-03T16:27:26.486Z,69.50
2022-11-03T16:30:33.649Z,90.33
2022-11-03T16:33:39.873Z,95.73
2022-11-03T16:36:45.821Z,95.47
2022-11-03T16:39:53.709Z,77.43
2022-11-03T16:42:59.630Z,83.83
2022-11-03T16:46:05.915Z,85.13
2022-11-03T16:49:12.105Z,183.07
2022-11-03T16:52:18.653Z,203.27
2022-11-03T16:55:26.475Z,143.43
2022-11-03T16:58:33.329Z,177.73
2022-11-03T17:01:40.755Z,189.93
2022-11-03T17:04:49.449Z,213.57
2022-11-03T17:07:56.724Z,104.70
2022-11-03T17:11:05.021Z,94.53
2022-11-03T17:14:14.902Z,82.50
2022-11-03T17:17:21.746Z,71.70
2022-11-03T17:20:28.508Z,77.67
2022-11-03T17:23:34.691Z,48.07
2022-11-03T17:26:51.803Z,49.60
2022-11-03T17:30:02.171Z,46.40
2022-11-03T17:33:10.327Z,50.47
2022-11-03T17:36:16.745Z,36.93
2022-11-03T17:39:29.301Z,49.57
2022-11-03T17:42:37.282Z,53.93
2022-11-03T17:45:43.168Z,114.83
2022-11-03T17:48:49.445Z,151.60
2022-11-03T17:51:55.634Z,120.50
2022-11-03T17:55:04.604Z,144.17
2022-11-03T17:58:12.845Z,137.07
2022-11-03T18:01:23.441Z,125.70
2022-11-03T18:04:29.985Z,126.17
2022-11-03T18:07:36.014Z,124.30
2022-11-03T18:10:44.469Z,114.30
2022-11-03T18:13:51.121Z,128.20
2022-11-03T18:16:58.250Z,143.50
2022-11-03T18:20:04.931Z,101.60
2022-11-03T18:23:17.191Z,123.40
2022-11-03T18:26:24.938Z,100.47
2022-11-03T18:29:32.624Z,108.93
2022-11-03T18:32:40.336Z,125.93
2022-11-03T18:35:46.356Z,122.23
2022-11-03T18:38:57.238Z,98.03
2022-11-03T18:42:03.306Z,93.37
2022-11-03T18:45:14.732Z,92.60
2022-11-03T18:48:20.934Z,93.67
2022-11-03T18:51:27.299Z,70.93
2022-11-03T18:54:35.654Z,107.50
2022-11-03T18:57:42.420Z,87.53
2022-11-03T19:00:50.427Z,96.87
2022-11-03T19:03:57.537Z,104.07
2022-11-03T19:07:08.374Z,93.50
2022-11-03T19:10:18.067Z,79.40
2022-11-03T19:13:29.906Z,98.00
2022-11-03T19:16:39.812Z,84.40
2022-11-03T19:19:56.696Z,137.50
2022-11-03T19:23:02.880Z,115.60
2022-11-03T19:26:20.506Z,78.17
2022-11-03T19:29:29.821Z,91.87
2022-11-03T19:32:43.629Z,79.90
2022-11-03T19:35:50.859Z,96.50
2022-11-03T19:38:57.093Z,82.43
2022-11-03T19:42:29.034Z,86.80
2022-11-03T19:45:35.090Z,78.77
2022-11-03T19:48:42.686Z,63.10
2022-11-03T19:51:49.174Z,76.20
2022-11-03T19:54:55.818Z,104.27
2022-11-03T19:58:08.791Z,108.70
2022-11-03T20:01:15.361Z,60.60
2022-11-03T20:04:22.763Z,46.03
2022-11-03T20:07:31.877Z,73.70
2022-11-03T20:10:38.330Z,82.07
2022-11-03T20:13:44.957Z,75.33
2022-11-03T20:16:50.865Z,88.87
2022-11-03T20:19:58.364Z,132.30
2022-11-03T20:23:06.197Z,111.77
2022-11-03T20:26:15.376Z,122.73
2022-11-03T20:29:21.419Z,100.30
2022-11-03T20:32:27.247Z,99.67
2022-11-03T20:35:37.889Z,97.43
2022-11-03T20:38:44.257Z,64.13
2022-11-03T20:41:52.310Z,43.80
2022-11-03T20:44:58.642Z,26.13
2022-11-03T20:48:05.221Z,54.67
2022-11-03T20:51:16.224Z,70.70
2022-11-03T20:54:22.973Z,65.13
2022-11-03T20:57:29.114Z,48.97
2022-11-03T21:00:40.056Z,37.03
2022-11-03T21:03:58.920Z,40.80
2022-11-03T21:07:07.699Z,44.53
2022-11-03T21:10:20.170Z,138.73
2022-11-03T21:13:26.711Z,60.47
2022-11-03T21:16:50.255Z,49.03
2022-11-03T21:20:12.013Z,35.73
2022-11-03T21:23:23.631Z,29.90
2022-11-03T21:26:29.845Z,41.67
2022-11-03T21:30:05.295Z,25.93
2022-11-03T21:33:02.441Z,32.40
2022-11-03T21:36:09.270Z,20.80
2022-11-03T21:39:16.734Z,13.33
2022-11-03T21:42:40.172Z,25.17
2022-11-03T21:45:46.441Z,21.00
2022-11-03T21:49:09.221Z,26.13
2022-11-03T21:52:17.416Z,28.40
2022-11-03T21:55:25.011Z,32.90
2022-11-03T21:58:31.408Z,34.80
2022-11-03T22:01:37.651Z,15.87
2022-11-03T22:04:44.047Z,20.97
2022-11-03T22:07:50.529Z,24.70
2022-11-03T22:11:18.631Z,29.13
2022-11-03T22:14:26.683Z,19.57
2022-11-03T22:17:32.233Z,47.73
2022-11-03T22:21:04.571Z,46.10
2022-11-03T22:24:28.062Z,42.53
2022-11-03T22:27:36.769Z,31.20
2022-11-03T22:31:15.088Z,13.60
2022-11-03T22:34:38.822Z,13.90
2022-11-03T22:37:44.760Z,15.33
2022-11-03T22:41:10.675Z,14.97
2022-11-03T22:44:35.705Z,15.37
2022-11-03T22:47:41.851Z,16.23
2022-11-03T22:50:48.228Z,19.90
2022-11-03T22:54:12.724Z,15.80
2022-11-03T22:57:19.029Z,16.43
2022-11-03T23:00:26.412Z,19.63
2022-11-03T23:03:33.676Z,18.13
2022-11-03T23:06:41.640Z,18.63
2022-11-03T23:09:47.928Z,18.13
2022-11-03T23:12:53.937Z,15.27
2022-11-03T23:16:01.314Z,17.90
2022-11-03T23:19:26.060Z,10.93
2022-11-03T23:22:31.921Z,15.07
2022-11-03T23:25:37.093Z,9.47
2022-11-03T23:28:44.413Z,10.17
2022-11-03T23:31:52.142Z,12.20
2022-11-03T23:34:58.017Z,11.13
2022-11-03T23:38:03.933Z,11.10
2022-11-03T23:41:12.650Z,12.93
2022-11-03T23:44:18.743Z,12.93
2022-11-03T23:47:44.010Z,5.93
2022-11-03T23:50:50.211Z,9.40
2022-11-03T23:53:57.602Z,12.17
2022-11-03T23:57:21.527Z,12.10
